Terminal Aerodrome Forecast
Issued by NWS

Home | Current Version | Previous Version | Text Only | Print | Product List | Glossary On
Versions: 1 2 3 4 5 6 7 8 9 10 11 12 13 14 15 16 17 18 19 20 21 22 23
000
FTUS44 KOHX 300705 AAA
TAFCKV
TAF AMD
KCKV 300705Z 3007/0106 07005KT P6SM BKN070 OVC100
     FM300800 10005KT 6SM -SHRA BR OVC060
     FM301000 10005KT P6SM OVC100
     FM301400 13006KT 5SM -SHRA VCTS BKN025CB OVC050
     FM302200 17004KT P6SM BKN050=

USA.gov is the U.S. government's official web portal to all federal, state and local government web resources and services.